Time;durP1;ratioP1;P1;durP2;ratioP2;P2;SDS_P1;SDS_P2;PMS_P1;PMS_P2;Temp;Humidity;BMP_temperature;BMP_pressure;BME280_temperature;BME280_humidity;BME280_pressure;Samples;Min_cycle;Max_cycle;Signal;HPM_P1;HPM_P2
2021/08/02 00:00:09;;;;;;;;;;;;;;;18.97;60.20;99038.84;5298534;27;19980;-88
2021/08/02 00:02:49;;;;;;;;;;;;;;;19.13;60.21;99026.13;5278712;27;19992;-89
2021/08/02 00:05:15;;;;;;;;;;;;;;;18.95;60.21;99044.25;5298669;27;19976;-90
2021/08/02 00:07:41;;;;;;;;;;;;;;;19.09;60.21;99034.41;5279092;27;20038;-90
2021/08/02 00:10:07;;;;;;;;;;;;;;;19.06;60.21;99042.56;5260584;27;20234;-89
2021/08/02 00:12:32;;;;;;;;;;;;;;;18.94;60.21;99044.34;5298538;27;20026;-88
2021/08/02 00:14:58;;;;;;;;;;;;;;;18.81;60.20;99040.97;5279166;27;20330;-89
2021/08/02 00:17:24;;;;;;;;;;;;;;;18.92;60.20;99048.87;5279641;27;20483;-90
2021/08/02 00:19:49;;;;;;;;;;;;;;;18.96;60.21;99045.91;5299166;27;19972;-89
2021/08/02 00:22:15;;;;;;;;;;;;;;;18.90;60.21;99051.62;5279769;27;20347;-89
2021/08/02 00:24:40;;;;;;;;;;;;;;;18.95;60.21;99046.03;5261842;27;20045;-90
2021/08/02 00:27:05;;;;;;;;;;;;;;;18.91;60.20;99052.47;5279713;27;20011;-89
2021/08/02 00:29:31;;;;;;;;;;;;;;;18.85;60.19;99055.59;5279658;27;19998;-89
2021/08/02 00:31:56;;;;;;;;;;;;;;;18.97;60.20;99058.16;5279711;27;19976;-89
2021/08/02 00:34:22;;;;;;;;;;;;;;;18.84;60.20;99043.38;5279526;27;20005;-89
2021/08/02 00:36:50;;;;;;;;;;;;;;;18.92;60.20;99054.16;5279287;27;19975;-90
2021/08/02 00:39:21;;;;;;;;;;;;;;;18.79;60.19;99056.09;5299624;27;20001;-88
2021/08/02 00:42:05;;;;;;;;;;;;;;;18.58;60.19;99054.09;5299478;27;20014;-89
2021/08/02 00:44:53;;;;;;;;;;;;;;;18.68;60.19;99054.25;5299480;27;20010;-88
2021/08/02 00:47:19;;;;;;;;;;;;;;;18.63;60.19;99059.03;5290659;27;19968;-90
2021/08/02 00:49:55;;;;;;;;;;;;;;;18.77;60.19;99066.75;5279776;27;20023;-89
2021/08/02 00:52:21;;;;;;;;;;;;;;;18.69;60.19;99061.19;5279510;27;19978;-88
2021/08/02 00:54:46;;;;;;;;;;;;;;;18.85;60.19;99053.81;5284833;27;19988;-88
2021/08/02 00:57:11;;;;;;;;;;;;;;;18.81;60.20;99057.63;5285213;27;22387;-90
2021/08/02 00:59:36;;;;;;;;;;;;;;;18.75;60.19;99063.37;5279602;27;21947;-89
2021/08/02 01:02:03;;;;;;;;;;;;;;;18.79;60.20;99064.81;5280223;27;19983;-90
2021/08/02 01:04:28;;;;;;;;;;;;;;;18.80;60.20;99053.31;5280323;27;20489;-90
2021/08/02 01:06:53;;;;;;;;;;;;;;;18.74;60.20;99048.53;5267919;27;19979;-90
2021/08/02 01:09:19;;;;;;;;;;;;;;;18.90;60.20;99056.91;5289048;27;19975;-90
2021/08/02 01:11:45;;;;;;;;;;;;;;;18.61;60.18;99058.28;5286758;27;20021;-90
2021/08/02 01:14:10;;;;;;;;;;;;;;;18.61;60.18;99066.19;5282516;27;19983;-91
2021/08/02 01:16:35;;;;;;;;;;;;;;;18.58;60.19;99050.63;5263664;27;19972;-90
2021/08/02 01:19:00;;;;;;;;;;;;;;;18.60;60.18;99057.44;5280186;27;19992;-91
2021/08/02 01:21:25;;;;;;;;;;;;;;;18.55;60.19;99061.38;5261208;27;24093;-90
2021/08/02 01:23:51;;;;;;;;;;;;;;;18.30;60.17;99065.03;5280055;27;20296;-91
2021/08/02 01:26:35;;;;;;;;;;;;;;;18.28;60.17;99062.50;5279473;27;19980;-90
2021/08/02 01:29:19;;;;;;;;;;;;;;;18.27;60.17;99065.25;5279669;27;20372;-91
2021/08/02 01:31:44;;;;;;;;;;;;;;;18.31;60.17;99057.00;5279650;27;20012;-90
2021/08/02 01:34:10;;;;;;;;;;;;;;;18.12;60.16;99053.22;5261460;27;20023;-90
2021/08/02 01:36:35;;;;;;;;;;;;;;;17.95;60.16;99051.81;5261700;27;20261;-91
2021/08/02 01:39:00;;;;;;;;;;;;;;;17.96;60.15;99053.50;5261242;27;25729;-89
2021/08/02 01:41:26;;;;;;;;;;;;;;;17.86;60.15;99057.75;5279876;27;19984;-91
2021/08/02 01:43:51;;;;;;;;;;;;;;;17.70;60.14;99066.75;5279875;27;20022;-91
2021/08/02 01:46:21;;;;;;;;;;;;;;;17.96;60.15;99071.94;5279527;27;19968;-90
2021/08/02 01:49:01;;;;;;;;;;;;;;;17.91;60.15;99080.16;5279824;27;19965;-90
2021/08/02 01:51:28;;;;;;;;;;;;;;;17.94;60.16;99089.62;5279680;27;19965;-89
2021/08/02 01:54:12;;;;;;;;;;;;;;;17.78;60.15;99085.50;5261590;27;19990;-90
2021/08/02 01:57:06;;;;;;;;;;;;;;;17.96;60.15;99085.94;5279617;27;20014;-91
2021/08/02 01:59:33;;;;;;;;;;;;;;;17.86;60.15;99092.84;5285024;27;19985;-89
2021/08/02 02:02:03;;;;;;;;;;;;;;;17.87;60.15;99099.78;5279708;27;20067;-88
2021/08/02 02:04:29;;;;;;;;;;;;;;;17.80;60.15;99106.44;5279678;27;20344;-89
2021/08/02 02:06:55;;;;;;;;;;;;;;;17.94;60.16;99111.53;5279497;27;19977;-89
2021/08/02 02:09:20;;;;;;;;;;;;;;;17.95;60.15;99115.84;5279753;27;19997;-90
2021/08/02 02:11:47;;;;;;;;;;;;;;;17.92;60.15;99117.87;5279215;27;23585;-89
2021/08/02 02:14:12;;;;;;;;;;;;;;;18.12;60.16;99122.53;5299393;27;19983;-89
2021/08/02 02:16:40;;;;;;;;;;;;;;;17.99;60.15;99127.03;5279699;27;19969;-89
2021/08/02 02:19:05;;;;;;;;;;;;;;;17.86;60.15;99127.06;5279495;27;19964;-90
2021/08/02 02:21:31;;;;;;;;;;;;;;;17.86;60.15;99126.22;5279345;27;20049;-89
2021/08/02 02:23:56;;;;;;;;;;;;;;;17.70;60.14;99135.19;5279841;27;20330;-89
2021/08/02 02:26:22;;;;;;;;;;;;;;;17.93;60.16;99124.81;5279843;27;19984;-90
2021/08/02 02:28:47;;;;;;;;;;;;;;;17.96;60.15;99125.44;5279842;27;19973;-90
2021/08/02 02:31:12;;;;;;;;;;;;;;;17.82;60.14;99137.94;5278636;27;21337;-89
2021/08/02 02:33:38;;;;;;;;;;;;;;;17.80;60.14;99132.78;5278555;27;25973;-90
2021/08/02 02:36:03;;;;;;;;;;;;;;;17.85;60.14;99141.19;5260705;27;19979;-90
2021/08/02 02:38:29;;;;;;;;;;;;;;;17.69;60.13;99144.03;5278606;27;19978;-90
2021/08/02 02:40:54;;;;;;;;;;;;;;;17.81;60.15;99149.41;5279484;27;19994;-90
2021/08/02 02:43:19;;;;;;;;;;;;;;;17.76;60.13;99147.09;5261114;27;20011;-90
2021/08/02 02:45:45;;;;;;;;;;;;;;;17.77;60.14;99156.69;5279198;27;19990;-89
2021/08/02 02:48:10;;;;;;;;;;;;;;;17.84;60.14;99155.28;5279293;27;19972;-89
2021/08/02 02:50:35;;;;;;;;;;;;;;;17.69;60.13;99173.00;5279146;27;19988;-89
2021/08/02 02:53:01;;;;;;;;;;;;;;;17.78;60.15;99164.47;5298813;27;20319;-89
2021/08/02 02:55:26;;;;;;;;;;;;;;;17.78;60.14;99176.78;5279271;27;19965;-91
2021/08/02 02:57:52;;;;;;;;;;;;;;;17.65;60.13;99178.56;5278977;27;21329;-89
2021/08/02 03:00:17;;;;;;;;;;;;;;;17.69;60.13;99180.91;5300979;27;19969;-91
2021/08/02 03:02:43;;;;;;;;;;;;;;;17.74;60.14;99183.19;5279209;27;20003;-90
2021/08/02 03:05:08;;;;;;;;;;;;;;;17.87;60.15;99186.66;5261011;27;20357;-89
2021/08/02 03:07:34;;;;;;;;;;;;;;;17.91;60.15;99195.19;5279051;27;19988;-88
2021/08/02 03:09:59;;;;;;;;;;;;;;;17.76;60.14;99210.28;5261075;27;20011;-89
2021/08/02 03:12:24;;;;;;;;;;;;;;;17.84;60.14;99215.84;5278550;27;20331;-89
2021/08/02 03:14:49;;;;;;;;;;;;;;;17.93;60.14;99225.72;5278887;27;20261;-90
2021/08/02 03:17:15;;;;;;;;;;;;;;;18.01;60.16;99231.31;5279059;27;19971;-88
2021/08/02 03:19:40;;;;;;;;;;;;;;;18.06;60.16;99228.34;5278286;27;20345;-88
2021/08/02 03:22:17;;;;;;;;;;;;;;;18.05;60.16;99221.38;5277986;27;27365;-89
2021/08/02 03:24:43;;;;;;;;;;;;;;;18.05;60.16;99222.22;5298936;27;19980;-89
2021/08/02 03:27:28;;;;;;;;;;;;;;;17.99;60.15;99221.84;5279015;27;19948;-90
2021/08/02 03:29:54;;;;;;;;;;;;;;;17.98;60.15;99213.09;5278873;27;19988;-90
2021/08/02 03:32:19;;;;;;;;;;;;;;;18.13;60.17;99197.12;5279368;27;19980;-90
2021/08/02 03:34:46;;;;;;;;;;;;;;;17.92;60.14;99207.41;5261058;27;20374;-89
2021/08/02 03:37:12;;;;;;;;;;;;;;;17.95;60.15;99234.34;5260979;27;19968;-89
2021/08/02 03:39:37;;;;;;;;;;;;;;;17.93;60.16;99232.78;5279080;27;19964;-90
2021/08/02 03:42:02;;;;;;;;;;;;;;;17.97;60.15;99242.97;5260887;27;19996;-88
2021/08/02 03:44:28;;;;;;;;;;;;;;;18.12;60.16;99251.59;5298901;27;19981;-89
2021/08/02 03:46:53;;;;;;;;;;;;;;;17.97;60.15;99250.88;5278960;27;19960;-89
2021/08/02 03:49:19;;;;;;;;;;;;;;;18.00;60.15;99257.75;5279488;27;19968;-90
2021/08/02 03:51:45;;;;;;;;;;;;;;;17.99;60.16;99256.91;5261666;27;19994;-87
2021/08/02 03:54:10;;;;;;;;;;;;;;;17.77;60.14;99265.47;5299593;27;19984;-89
2021/08/02 03:56:35;;;;;;;;;;;;;;;17.97;60.15;99271.09;5279674;27;19964;-89
2021/08/02 03:59:01;;;;;;;;;;;;;;;17.75;60.14;99274.41;5279593;27;20001;-89
2021/08/02 04:01:26;;;;;;;;;;;;;;;17.92;60.14;99281.12;5278911;27;26355;-88
2021/08/02 04:03:51;;;;;;;;;;;;;;;17.85;60.14;99287.78;5298934;27;28332;-88
2021/08/02 04:06:16;;;;;;;;;;;;;;;17.92;60.14;99289.03;5262147;27;19984;-90
2021/08/02 04:08:42;;;;;;;;;;;;;;;18.04;60.16;99293.44;5280970;27;20004;-89
2021/08/02 04:11:07;;;;;;;;;;;;;;;18.04;60.16;99291.66;5308206;27;19983;-88
2021/08/02 04:13:32;;;;;;;;;;;;;;;18.03;60.15;99297.88;5271557;27;19969;-90
2021/08/02 04:15:57;;;;;;;;;;;;;;;17.95;60.15;99301.97;5285661;27;19956;-89
2021/08/02 04:18:23;;;;;;;;;;;;;;;18.24;60.17;99306.06;5281392;27;26293;-89
2021/08/02 04:20:49;;;;;;;;;;;;;;;18.23;60.17;99300.91;5280226;27;19987;-89
2021/08/02 04:23:14;;;;;;;;;;;;;;;18.40;60.18;99301.38;5279954;27;19968;-88
2021/08/02 04:25:39;;;;;;;;;;;;;;;18.51;60.18;99300.63;5279769;27;19984;-87
2021/08/02 04:28:05;;;;;;;;;;;;;;;18.55;60.19;99315.25;5299569;27;19984;-88
2021/08/02 04:30:30;;;;;;;;;;;;;;;18.52;60.18;99325.19;5299416;27;20265;-88
2021/08/02 04:32:55;;;;;;;;;;;;;;;18.69;60.18;99322.19;5279185;27;20286;-88
2021/08/02 04:35:20;;;;;;;;;;;;;;;18.62;60.18;99320.94;5279254;27;19980;-88
2021/08/02 04:37:45;;;;;;;;;;;;;;;18.83;60.20;99327.31;5279117;27;19987;-87
2021/08/02 04:40:11;;;;;;;;;;;;;;;18.87;60.20;99327.94;5278513;27;21621;-88
2021/08/02 04:42:36;;;;;;;;;;;;;;;18.57;60.18;99334.44;5279628;27;20261;-87
2021/08/02 04:45:02;;;;;;;;;;;;;;;18.50;60.18;99320.03;5279671;27;19973;-88
2021/08/02 04:47:28;;;;;;;;;;;;;;;18.56;60.19;99322.22;5279237;27;19986;-88
2021/08/02 04:49:53;;;;;;;;;;;;;;;18.84;60.20;99322.87;5261233;27;19990;-88
2021/08/02 04:52:19;;;;;;;;;;;;;;;18.84;60.20;99317.63;5298751;27;20062;-87
2021/08/02 04:54:44;;;;;;;;;;;;;;;18.90;60.20;99319.78;5279328;27;19961;-88
2021/08/02 04:57:09;;;;;;;;;;;;;;;19.01;60.21;99328.63;5260567;27;20014;-88
2021/08/02 04:59:35;;;;;;;;;;;;;;;18.94;60.21;99318.66;5278426;27;21391;-88
2021/08/02 05:02:00;;;;;;;;;;;;;;;19.12;60.21;99319.06;5278300;27;27127;-87
2021/08/02 05:04:25;;;;;;;;;;;;;;;19.11;60.21;99322.66;5279436;27;19984;-87
2021/08/02 05:06:51;;;;;;;;;;;;;;;19.23;60.21;99322.59;5296156;27;80587;-88
2021/08/02 05:09:16;;;;;;;;;;;;;;;19.19;60.22;99320.31;5278783;27;25127;-87
2021/08/02 05:11:41;;;;;;;;;;;;;;;19.25;60.22;99333.03;5298600;27;20523;-88
2021/08/02 05:14:06;;;;;;;;;;;;;;;19.13;60.21;99329.50;5298321;27;26850;-88
2021/08/02 05:16:31;;;;;;;;;;;;;;;19.39;60.22;99329.34;5278761;27;20280;-88
2021/08/02 05:18:57;;;;;;;;;;;;;;;19.39;60.22;99342.56;5298157;27;29927;-86
2021/08/02 05:21:22;;;;;;;;;;;;;;;19.37;60.22;99333.91;5297868;27;26547;-88
2021/08/02 05:23:47;;;;;;;;;;;;;;;19.56;60.24;99334.25;5279285;27;20282;-88
2021/08/02 05:26:12;;;;;;;;;;;;;;;19.72;60.25;99328.66;5279203;27;20055;-88
2021/08/02 05:28:38;;;;;;;;;;;;;;;19.68;60.24;99335.97;5260911;27;19988;-87
2021/08/02 05:31:03;;;;;;;;;;;;;;;19.86;60.26;99325.78;5298870;27;19977;-88
2021/08/02 05:33:28;;;;;;;;;;;;;;;19.83;60.25;99323.37;5278966;27;19956;-89
2021/08/02 05:35:53;;;;;;;;;;;;;;;19.91;60.25;99331.59;5298977;27;19960;-88
2021/08/02 05:38:19;;;;;;;;;;;;;;;20.10;60.27;99325.69;5278267;27;31866;-87
2021/08/02 05:40:44;;;;;;;;;;;;;;;20.17;60.27;99327.75;5278319;27;24378;-88
2021/08/02 05:43:09;;;;;;;;;;;;;;;20.33;60.28;99332.66;5299005;27;19980;-87
2021/08/02 05:45:34;;;;;;;;;;;;;;;20.33;60.28;99335.28;5278295;27;23359;-88
2021/08/02 05:48:00;;;;;;;;;;;;;;;20.21;60.27;99333.62;5260987;27;19973;-88
2021/08/02 05:50:25;;;;;;;;;;;;;;;20.14;60.26;99335.94;5298442;27;20754;-87
2021/08/02 05:52:50;;;;;;;;;;;;;;;20.26;60.27;99339.41;5278471;27;26257;-87
2021/08/02 05:55:17;;;;;;;;;;;;;;;20.30;60.27;99345.28;5279022;27;20380;-87
2021/08/02 05:57:42;;;;;;;;;;;;;;;20.29;60.27;99344.44;5261050;27;20532;-88
2021/08/02 06:00:08;;;;;;;;;;;;;;;20.22;60.27;99340.59;5298742;27;19979;-87
2021/08/02 06:02:33;;;;;;;;;;;;;;;20.41;60.29;99348.81;5278949;27;19988;-87
2021/08/02 06:04:58;;;;;;;;;;;;;;;20.12;60.26;99343.13;5278545;27;21633;-88
2021/08/02 06:07:23;;;;;;;;;;;;;;;20.20;60.27;99348.66;5278957;27;20015;-87
2021/08/02 06:09:50;;;;;;;;;;;;;;;20.36;60.28;99348.31;5278407;27;20296;-88
2021/08/02 06:12:15;;;;;;;;;;;;;;;20.50;60.29;99349.88;5298393;27;19991;-88
2021/08/02 06:14:40;;;;;;;;;;;;;;;20.54;60.28;99349.50;5278952;27;20262;-87
2021/08/02 06:17:06;;;;;;;;;;;;;;;20.73;60.30;99343.59;5298160;27;26565;-88
2021/08/02 06:19:31;;;;;;;;;;;;;;;21.00;60.31;99351.09;5260195;27;32126;-88
2021/08/02 06:21:56;;;;;;;;;;;;;;;20.99;60.31;99354.72;5298920;27;19952;-88
2021/08/02 06:24:21;;;;;;;;;;;;;;;21.06;60.32;99355.91;5279322;27;20000;-87
2021/08/02 06:26:47;;;;;;;;;;;;;;;20.95;60.31;99363.03;5278665;27;22298;-87
2021/08/02 06:29:12;;;;;;;;;;;;;;;21.02;60.32;99367.69;5298505;27;20724;-88
2021/08/02 06:31:37;;;;;;;;;;;;;;;21.25;60.32;99370.28;5279228;27;19991;-89
2021/08/02 06:34:02;;;;;;;;;;;;;;;21.33;60.34;99378.47;5278874;27;19956;-87
2021/08/02 06:36:28;;;;;;;;;;;;;;;21.52;60.34;99381.25;5299287;27;20313;-88
2021/08/02 06:38:53;;;;;;;;;;;;;;;21.59;60.35;99389.56;5278562;27;27909;-87
2021/08/02 06:41:18;;;;;;;;;;;;;;;21.62;60.34;99384.84;5278360;27;29364;-88
2021/08/02 06:43:43;;;;;;;;;;;;;;;21.57;60.35;99388.84;5299191;27;19976;-87
2021/08/02 06:46:08;;;;;;;;;;;;;;;21.63;60.34;99390.97;5298475;27;24120;-88
2021/08/02 06:48:34;;;;;;;;;;;;;;;21.62;60.34;99384.84;5298447;27;24249;-87
2021/08/02 06:50:59;;;;;;;;;;;;;;;21.61;60.33;99388.44;5279154;27;20237;-88
2021/08/02 06:53:24;;;;;;;;;;;;;;;21.73;60.35;99395.34;5298929;27;19980;-88
2021/08/02 06:55:49;;;;;;;;;;;;;;;21.82;60.36;99400.88;5298279;27;28041;-87
2021/08/02 06:58:15;;;;;;;;;;;;;;;21.85;60.36;99403.25;5278053;27;25476;-87
2021/08/02 07:00:40;;;;;;;;;;;;;;;21.98;60.36;99406.53;5279246;27;19983;-87
2021/08/02 07:03:06;;;;;;;;;;;;;;;22.05;60.37;99413.91;5280059;27;20261;-88
2021/08/02 07:05:31;;;;;;;;;;;;;;;22.19;60.38;99410.06;5281335;27;25288;-86
2021/08/02 07:07:56;;;;;;;;;;;;;;;21.89;60.36;99408.16;5280064;27;19979;-87
2021/08/02 07:10:21;;;;;;;;;;;;;;;21.84;60.36;99409.53;5298530;27;27154;-88
2021/08/02 07:12:47;;;;;;;;;;;;;;;21.71;60.36;99402.59;5299085;27;32671;-89
2021/08/02 07:15:12;;;;;;;;;;;;;;;21.67;60.35;99411.78;5286543;27;20012;-87
2021/08/02 07:17:37;;;;;;;;;;;;;;;21.76;60.35;99400.41;5307419;27;19979;-86
2021/08/02 07:20:02;;;;;;;;;;;;;;;21.76;60.35;99402.22;5283434;27;20022;-88
2021/08/02 07:22:28;;;;;;;;;;;;;;;21.68;60.35;99399.37;5279089;27;19976;-87
2021/08/02 07:24:53;;;;;;;;;;;;;;;21.71;60.36;99410.53;5298301;27;19964;-88
2021/08/02 07:27:18;;;;;;;;;;;;;;;21.75;60.36;99403.19;5278568;27;20424;-88
2021/08/02 07:29:43;;;;;;;;;;;;;;;22.02;60.36;99394.75;5297510;27;28176;-88
2021/08/02 07:32:09;;;;;;;;;;;;;;;22.13;60.37;99399.16;5298382;27;19992;-89
2021/08/02 07:34:34;;;;;;;;;;;;;;;22.16;60.37;99398.87;5278559;27;19984;-88
2021/08/02 07:36:59;;;;;;;;;;;;;;;22.01;60.36;99412.44;5278267;27;19971;-89
2021/08/02 07:39:24;;;;;;;;;;;;;;;22.13;60.38;99415.03;5260222;27;20317;-89
2021/08/02 07:41:49;;;;;;;;;;;;;;;22.32;60.38;99413.34;5278297;27;21627;-89
2021/08/02 07:44:15;;;;;;;;;;;;;;;22.50;60.40;99405.63;5278205;27;26277;-88
2021/08/02 07:46:40;;;;;;;;;;;;;;;22.65;60.39;99408.75;5278505;27;19990;-89
2021/08/02 07:49:05;;;;;;;;;;;;;;;22.97;60.41;99403.31;5278798;27;19986;-88
2021/08/02 07:51:31;;;;;;;;;;;;;;;23.01;60.42;99406.50;5297536;27;29173;-89
2021/08/02 07:53:58;;;;;;;;;;;;;;;22.98;60.42;99401.47;5260266;27;20233;-89
2021/08/02 07:56:23;;;;;;;;;;;;;;;23.00;60.42;99405.69;5279134;27;19937;-89
2021/08/02 07:58:49;;;;;;;;;;;;;;;22.90;60.42;99405.63;5298664;27;19982;-89
2021/08/02 08:01:16;;;;;;;;;;;;;;;22.89;60.41;99419.03;5278297;27;19960;-89
2021/08/02 08:03:43;;;;;;;;;;;;;;;23.11;60.42;99416.16;5279035;27;19972;-89
2021/08/02 08:06:08;;;;;;;;;;;;;;;23.15;60.43;99424.69;5279357;27;19971;-88
2021/08/02 08:08:33;;;;;;;;;;;;;;;23.16;60.43;99421.91;5277844;27;26962;-88
2021/08/02 08:10:58;;;;;;;;;;;;;;;23.23;60.43;99433.69;5298441;27;19959;-88
2021/08/02 08:13:24;;;;;;;;;;;;;;;23.26;60.42;99421.94;5278435;27;28090;-88
2021/08/02 08:15:49;;;;;;;;;;;;;;;23.15;60.43;99432.66;5278792;27;19986;-89
2021/08/02 08:18:14;;;;;;;;;;;;;;;23.32;60.43;99424.03;5278438;27;25692;-88
2021/08/02 08:20:39;;;;;;;;;;;;;;;23.19;60.42;99424.31;5278491;27;19999;-87
2021/08/02 08:23:05;;;;;;;;;;;;;;;23.62;60.45;99428.41;5278588;27;20297;-89
2021/08/02 08:25:30;;;;;;;;;;;;;;;23.77;60.47;99428.84;5278899;27;19971;-89
2021/08/02 08:27:55;;;;;;;;;;;;;;;23.65;60.45;99427.28;5298682;27;20423;-89
2021/08/02 08:30:21;;;;;;;;;;;;;;;23.71;60.45;99426.75;5298325;27;19979;-88
2021/08/02 08:32:46;;;;;;;;;;;;;;;23.72;60.45;99423.13;5260275;27;20006;-87
2021/08/02 08:35:11;;;;;;;;;;;;;;;23.80;60.47;99433.88;5278590;27;19976;-89
2021/08/02 08:37:37;;;;;;;;;;;;;;;24.01;60.48;99428.41;5279326;27;19966;-89
2021/08/02 08:40:03;;;;;;;;;;;;;;;24.03;60.47;99445.03;5279721;27;19980;-89
2021/08/02 08:42:29;;;;;;;;;;;;;;;24.01;60.48;99439.88;5299543;27;19983;-88
2021/08/02 08:44:54;;;;;;;;;;;;;;;24.23;60.48;99437.87;5299071;27;19987;-86
2021/08/02 08:47:19;;;;;;;;;;;;;;;24.43;60.49;99423.56;5298632;27;27462;-88
2021/08/02 08:49:46;;;;;;;;;;;;;;;24.31;60.49;99424.72;5278974;27;19972;-89
2021/08/02 08:52:11;;;;;;;;;;;;;;;24.39;60.50;99431.00;5279782;27;20019;-88
2021/08/02 08:54:42;;;;;;;;;;;;;;;24.46;60.50;99424.13;5279093;27;19986;-87
2021/08/02 08:57:07;;;;;;;;;;;;;;;24.66;60.50;99435.53;5280426;27;20336;-88
2021/08/02 08:59:33;;;;;;;;;;;;;;;24.91;60.52;99427.84;5261214;27;20003;-88
2021/08/02 09:02:02;;;;;;;;;;;;;;;25.25;60.54;99428.94;5280350;27;19984;-88
2021/08/02 09:04:29;;;;;;;;;;;;;;;25.44;60.54;99435.94;5282728;27;19968;-89
2021/08/02 09:06:56;;;;;;;;;;;;;;;25.32;60.54;99435.34;5282054;27;19964;-89
2021/08/02 09:09:22;;;;;;;;;;;;;;;25.78;60.56;99437.94;5280695;27;19998;-89
2021/08/02 09:11:47;;;;;;;;;;;;;;;25.96;60.57;99436.09;5299836;27;19980;-87
2021/08/02 09:14:15;;;;;;;;;;;;;;;25.68;60.56;99454.03;5261190;27;24799;-89
2021/08/02 09:16:41;;;;;;;;;;;;;;;25.74;60.56;99445.41;5280494;27;19984;-89
2021/08/02 09:19:12;;;;;;;;;;;;;;;25.87;60.58;99443.22;5279935;27;19964;-90
2021/08/02 09:21:46;;;;;;;;;;;;;;;25.78;60.56;99448.62;5280026;27;20014;-89
2021/08/02 09:24:12;;;;;;;;;;;;;;;25.90;60.57;99444.72;5280150;27;19980;-89
2021/08/02 09:26:38;;;;;;;;;;;;;;;26.17;60.58;99451.78;5298933;27;19991;-90
2021/08/02 09:29:03;;;;;;;;;;;;;;;26.32;60.59;99444.87;5279934;27;20030;-89
2021/08/02 09:31:32;;;;;;;;;;;;;;;26.20;60.59;99457.63;5280924;27;19998;-89
2021/08/02 09:33:59;;;;;;;;;;;;;;;26.33;60.59;99456.41;5300094;27;20332;-89
2021/08/02 09:36:25;;;;;;;;;;;;;;;26.44;60.61;99466.81;5300597;27;19964;-90
2021/08/02 09:38:53;;;;;;;;;;;;;;;26.37;60.60;99466.63;5264718;27;21521;-91
2021/08/02 09:41:23;;;;;;;;;;;;;;;26.59;60.61;99470.59;5284609;27;20017;-90
2021/08/02 09:43:49;;;;;;;;;;;;;;;26.51;60.61;99470.56;5282005;27;19968;-93
2021/08/02 09:46:14;;;;;;;;;;;;;;;26.54;60.61;99473.75;5280927;27;19975;-92
2021/08/02 09:48:40;;;;;;;;;;;;;;;26.53;60.60;99472.06;5280734;27;19979;-92
2021/08/02 09:51:07;;;;;;;;;;;;;;;26.54;60.60;99473.75;5263126;27;19991;-91
2021/08/02 09:53:35;;;;;;;;;;;;;;;26.50;60.61;99469.72;5281296;27;19980;-91
2021/08/02 09:56:00;;;;;;;;;;;;;;;26.27;60.59;99471.22;5280541;27;19986;-91
2021/08/02 09:58:25;;;;;;;;;;;;;;;26.53;60.60;99465.91;5279242;27;24820;-91
2021/08/02 10:00:50;;;;;;;;;;;;;;;26.55;60.62;99467.41;5261288;27;20045;-91
2021/08/02 10:03:16;;;;;;;;;;;;;;;26.71;60.61;99465.81;5278926;27;23764;-90
2021/08/02 10:05:41;;;;;;;;;;;;;;;26.50;60.61;99479.53;5279668;27;19971;-91
2021/08/02 10:08:06;;;;;;;;;;;;;;;26.25;60.60;99467.81;5261602;27;20313;-91
2021/08/02 10:10:32;;;;;;;;;;;;;;;26.65;60.62;99453.94;5300117;27;20003;-91
2021/08/02 10:12:57;;;;;;;;;;;;;;;26.87;60.63;99469.41;5261817;27;19995;-93
2021/08/02 10:15:26;;;;;;;;;;;;;;;26.90;60.63;99457.56;5299768;27;19999;-92
2021/08/02 10:17:53;;;;;;;;;;;;;;;27.11;60.63;99457.19;5281654;27;19969;-91
2021/08/02 10:20:22;;;;;;;;;;;;;;;27.46;60.66;99446.25;5280771;27;19975;-92
2021/08/02 10:22:47;;;;;;;;;;;;;;;27.37;60.66;99454.41;5280904;27;20023;-91
2021/08/02 10:25:12;;;;;;;;;;;;;;;27.16;60.64;99445.00;5261827;27;24418;-90
2021/08/02 10:27:39;;;;;;;;;;;;;;;27.02;60.63;99447.47;5281333;27;19984;-88
2021/08/02 10:30:05;;;;;;;;;;;;;;;27.12;60.65;99450.84;5272228;27;20011;-89
2021/08/02 10:32:35;;;;;;;;;;;;;;;26.95;60.63;99443.72;5308755;27;19969;-92
2021/08/02 10:35:00;;;;;;;;;;;;;;;26.82;60.63;99446.84;5307240;27;19960;-91
2021/08/02 10:37:32;;;;;;;;;;;;;;;27.00;60.63;99452.97;5266079;27;19982;-92
2021/08/02 10:40:07;;;;;;;;;;;;;;;26.79;60.62;99464.03;5283483;27;20051;-90
2021/08/02 10:42:44;;;;;;;;;;;;;;;26.76;60.62;99452.84;5301696;27;19944;-91
2021/08/02 10:45:09;;;;;;;;;;;;;;;26.58;60.61;99467.09;5281609;27;19941;-91
2021/08/02 10:47:38;;;;;;;;;;;;;;;26.52;60.61;99462.41;5279955;27;19980;-90
2021/08/02 10:50:03;;;;;;;;;;;;;;;26.81;60.63;99458.53;5279360;27;20031;-90
2021/08/02 10:52:29;;;;;;;;;;;;;;;26.88;60.64;99460.41;5299522;27;19975;-90
2021/08/02 10:54:54;;;;;;;;;;;;;;;26.99;60.64;99462.00;5280363;27;20338;-90
2021/08/02 10:57:19;;;;;;;;;;;;;;;26.95;60.65;99465.91;5263466;27;19999;-89
2021/08/02 10:59:45;;;;;;;;;;;;;;;27.17;60.64;99461.88;5283554;27;25728;-88
2021/08/02 11:02:10;;;;;;;;;;;;;;;27.27;60.66;99454.56;5279210;27;19972;-90
2021/08/02 11:04:36;;;;;;;;;;;;;;;27.28;60.65;99461.59;5279018;27;20003;-91
2021/08/02 11:07:01;;;;;;;;;;;;;;;27.50;60.67;99447.59;5279576;27;19964;-90
2021/08/02 11:09:30;;;;;;;;;;;;;;;27.68;60.68;99447.50;5279065;27;19998;-90
2021/08/02 11:12:21;;;;;;;;;;;;;;;27.74;60.66;99462.03;5279332;27;19964;-90
2021/08/02 11:14:47;;;;;;;;;;;;;;;27.94;60.68;99462.56;5295861;27;19964;-89
2021/08/02 11:17:16;;;;;;;;;;;;;;;27.75;60.68;99469.88;5279391;27;20000;-89
2021/08/02 11:19:42;;;;;;;;;;;;;;;27.68;60.67;99465.34;5279778;27;19980;-90
2021/08/02 11:22:07;;;;;;;;;;;;;;;27.80;60.67;99462.19;5261208;27;20003;-91
2021/08/02 11:24:36;;;;;;;;;;;;;;;27.76;60.68;99460.87;5279490;27;20340;-87
2021/08/02 11:27:02;;;;;;;;;;;;;;;27.47;60.66;99477.34;5279477;27;19978;-90
2021/08/02 11:29:36;;;;;;;;;;;;;;;27.78;60.68;99471.41;5298885;27;20008;-89
2021/08/02 11:32:03;;;;;;;;;;;;;;;27.71;60.67;99465.88;5299195;27;19983;-90
2021/08/02 11:34:28;;;;;;;;;;;;;;;27.50;60.67;99471.66;5279034;27;20031;-90
2021/08/02 11:37:04;;;;;;;;;;;;;;;27.55;60.67;99479.19;5298929;27;20063;-90
2021/08/02 11:39:29;;;;;;;;;;;;;;;27.83;60.68;99463.69;5279303;27;19983;-89
2021/08/02 11:42:02;;;;;;;;;;;;;;;27.83;60.68;99482.41;5279140;27;19972;-89
2021/08/02 11:44:27;;;;;;;;;;;;;;;27.57;60.66;99476.34;5279308;27;19969;-88
2021/08/02 11:46:53;;;;;;;;;;;;;;;27.34;60.67;99486.81;5279133;27;19991;-89
2021/08/02 11:49:18;;;;;;;;;;;;;;;27.46;60.66;99480.19;5279031;27;20222;-89
2021/08/02 11:51:44;;;;;;;;;;;;;;;27.78;60.68;99477.56;5279036;27;19965;-90
2021/08/02 11:54:22;;;;;;;;;;;;;;;27.83;60.69;99482.41;5279114;27;20298;-89
2021/08/02 11:56:54;;;;;;;;;;;;;;;27.92;60.69;99485.94;5272395;27;19976;-88
2021/08/02 11:59:23;;;;;;;;;;;;;;;27.79;60.68;99489.94;5297920;27;19976;-88
2021/08/02 12:01:49;;;;;;;;;;;;;;;27.79;60.68;99495.28;5278884;27;20113;-89
2021/08/02 12:04:14;;;;;;;;;;;;;;;27.94;60.68;99497.31;5278796;27;19984;-88
2021/08/02 12:06:49;;;;;;;;;;;;;;;27.76;60.68;99497.47;5278300;27;19964;-88
2021/08/02 12:09:15;;;;;;;;;;;;;;;28.00;60.69;99488.63;5298897;27;19976;-88
2021/08/02 12:11:41;;;;;;;;;;;;;;;28.52;60.71;99488.28;5298911;27;29134;-88
2021/08/02 12:14:06;;;;;;;;;;;;;;;28.86;60.74;99474.66;5279760;27;20702;-87
2021/08/02 12:16:33;;;;;;;;;;;;;;;28.91;60.74;99470.47;5279649;27;19964;-87
2021/08/02 12:19:09;;;;;;;;;;;;;;;28.84;60.73;99480.16;5261811;27;19983;-89
2021/08/02 12:21:36;;;;;;;;;;;;;;;28.75;60.73;99486.53;5279760;27;19961;-87
2021/08/02 12:24:02;;;;;;;;;;;;;;;29.01;60.75;99478.28;5261598;27;20023;-88
2021/08/02 12:26:32;;;;;;;;;;;;;;;28.53;60.71;99489.94;5278837;27;19972;-90
2021/08/02 12:28:57;;;;;;;;;;;;;;;28.13;60.70;99481.75;5299960;27;20026;-90
2021/08/02 12:31:23;;;;;;;;;;;;;;;28.18;60.70;99481.28;5298351;27;30012;-88
2021/08/02 12:33:49;;;;;;;;;;;;;;;28.26;60.70;99483.13;5299195;27;20011;-91
2021/08/02 12:36:15;;;;;;;;;;;;;;;28.29;60.71;99483.63;5280086;27;19968;-92
2021/08/02 12:38:41;;;;;;;;;;;;;;;28.24;60.71;99482.44;5280060;27;19999;-91
2021/08/02 12:41:07;;;;;;;;;;;;;;;28.24;60.71;99485.94;5278975;27;20019;-90
2021/08/02 12:43:33;;;;;;;;;;;;;;;28.25;60.70;99479.62;5278779;27;19972;-90